Dollard-Des Ormeaux, Quebec

4:29 PM EDT on 六月 22, 2017 (GMT -0400)
Pierrefonds | | Change Station
発令中の注意報: Special Weather Statement

高度 91 ft 45.50 °N, 73.83 °W | Updated 13 minutes ago

曇
73.4 °F
体感気温 76 °F
0.6
風 変数 風 から
Gusts 1.9 Mph

今日
高い -- | 低 -- °F
--% 降水確率
昨日
高い -- | 低 -- °F
Precip. -- インチ
気圧 29.86 インチ
視程 30.0 マイル
わずか 3500 ft
曇 12000 ft
体感気温(暑さ) 76 °F
露点温度 62 °F
湿度 66%
降水 利用不可。
積雪深 利用不可。
5:06 AM 8:47 PM
二十六夜, 2% visible
METAR CYUL 222000Z 22011KT 30SM FEW035 OVC120 23/14 A2985 RMK CU1AC8 CU TR SLP110 DENSITY ALT 1200FT
気圧 29.86 インチ
視程 30.0 マイル
わずか 3500 ft
曇 12000 ft
体感気温(暑さ) 76 °F
露点温度 62 °F
湿度 66%
降水 利用不可。
積雪深 利用不可。
5:06 AM 8:47 PM
二十六夜, 2% visible
METAR CYUL 222000Z 22011KT 30SM FEW035 OVC120 23/14 A2985 RMK CU1AC8 CU TR SLP110 DENSITY ALT 1200FT

Get Severe Weather Alerts

Thanks for signing up!

Be on the lookout for a verification email in your inbox.

You'll start receiving the daily forecast at 6 AM.

×

10-Day Weather Forecast

Almanac

天文

Jun. 22, 2017 入り
実時間
常用薄明
航海薄明
天文薄明
可視光の長さ
可照時間
Tomorrow will be .
, % of the Moon is Illuminated

今日の極値

Country Highs Country Lows

Community

Category 6

Welcome to Category 6. This is the collective home for Weather Underground's featured writeups by Dr. Jeff Masters (right), Bob Henson (left), Chris Burt, and other regular contributors.

Nearby

空気品質

  空気品質 大気質指数 汚染物質
Not available.

積雪深

Station Depth 高度

地震活動

Distance Mag. Time & Date
Minimum magnitude displayed is 2.5.

沿岸の水温

地名 気温

Stations

最寄りの気象観測所

観測所位置 温度 体感気温(寒さ) 露点温度 湿度 Precip. 高度 更新日時 タイプする
                   

Watches & Warnings

Special Weather Statement
Issued: Environment Canada
Special Weather Statement issued by Environment.  11:52 AM EDT Thursday 22 June 2017.
A disturbance developing over the American plains will bring rain and thunderstorms for the day before Saint-Jean over Quebec.   Precipitation will begin sporadically tonight over Western Quebec and spread toward the Quebec City area Friday and reach Eastern Quebec the following night.

The onset of the precipitation will fall as more or less continuous rain.   Following the outset of a warm and very humid area Friday morning, Southern Quebec will see showers or thunderstorms which could give locally great amounts possibly exceeding 40 millimetres.

Conditions on Saturday will be more favourable for bonfires over most areas mentionned in this bulletin.

###

Please continue to monitor alerts and forecasts issued by Environment Canada. To report severe weather, send an email to ec.cpiq_tempetes-qspc_storms.ec@canada.ca or tweet reports using #meteoqc.
expires_epoch:1498189902